Terminal Aerodrome Forecast
Issued by NWS

Home | Current Version | Previous Version | Text Only | Print | Product List | Glossary Off
Versions: 1 2 3 4 5 6 7 8 9 10 11 12 13 14 15 16 17 18 19 20 21 22 23

000
FTUS45 KGGW 212327
TAFGDV
TAF
KGDV 212327Z 2200/2224 15020G30KT P6SM FEW130
     FM220600 22012KT P6SM VCSH BKN070
     FM220900 21006KT P6SM BKN090 PROB30 2209/2212 6SM -SHRA OVC040
     FM221500 25011KT P6SM BKN080
      AMD LTD TO CLD VIS AND WIND=

USA.gov is the U.S. government's official web portal to all federal, state and local government web resources and services.